LGB weather

Long Beach /Daugherty Field/ Airport
Long Beach, California, United States

Public forecast

Using degrees Fahrenheit for public forecast. Weather courtesy of forecast.io.

Current aviation weather report (METAR) for Long Beach /Daugherty Field/ Airport

Retrieved 2020/04/07 15:53 UTC (15 minutes ago):

KLGB 071553Z 04005KT 10SM FEW075 BKN100 OVC120 14/11 A3006 RMK AO2 SLP178 T01390106

Aviation forecast (TAF) for Long Beach /Daugherty Field/ Airport

Retrieved 2020/04/07 12:22 UTC (4 hours ago):

TAF KLGB 071120Z 0712/0812 VRB03KT P6SM BKN040 FM071800 19008KT 6SM -SHRA BR OVC030 FM072100 24008KT 4SM -SHRA OVC025 FM080400 VRB03KT P6SM VCSH BKN040